sensor_id;sensor_type;location;lat;lon;timestamp;temperature;humidity
38480;DHT22;62333;51.980;5.934;2023-03-01T00:00:46;4.70;52.60
38480;DHT22;62333;51.980;5.934;2023-03-01T00:03:12;4.60;52.60
38480;DHT22;62333;51.980;5.934;2023-03-01T00:05:46;4.60;52.60
38480;DHT22;62333;51.980;5.934;2023-03-01T00:08:12;4.60;52.80
38480;DHT22;62333;51.980;5.934;2023-03-01T00:10:38;4.60;52.80
38480;DHT22;62333;51.980;5.934;2023-03-01T00:13:04;4.60;52.90
38480;DHT22;62333;51.980;5.934;2023-03-01T00:15:31;4.60;52.90
38480;DHT22;62333;51.980;5.934;2023-03-01T00:17:57;4.60;52.90
38480;DHT22;62333;51.980;5.934;2023-03-01T00:20:23;4.50;53.50
38480;DHT22;62333;51.980;5.934;2023-03-01T00:22:49;4.50;52.90
38480;DHT22;62333;51.980;5.934;2023-03-01T00:25:14;4.50;53.00
38480;DHT22;62333;51.980;5.934;2023-03-01T00:27:40;4.50;53.00
38480;DHT22;62333;51.980;5.934;2023-03-01T00:30:06;4.50;53.00
38480;DHT22;62333;51.980;5.934;2023-03-01T00:32:32;4.50;53.10
38480;DHT22;62333;51.980;5.934;2023-03-01T00:34:57;4.50;53.20
38480;DHT22;62333;51.980;5.934;2023-03-01T00:37:23;4.50;53.30
38480;DHT22;62333;51.980;5.934;2023-03-01T00:39:49;4.40;53.40
38480;DHT22;62333;51.980;5.934;2023-03-01T00:42:16;4.40;53.50
38480;DHT22;62333;51.980;5.934;2023-03-01T00:44:42;4.40;53.50
38480;DHT22;62333;51.980;5.934;2023-03-01T00:47:07;4.40;53.60
38480;DHT22;62333;51.980;5.934;2023-03-01T00:49:33;4.40;53.70
38480;DHT22;62333;51.980;5.934;2023-03-01T00:51:59;4.30;53.70
38480;DHT22;62333;51.980;5.934;2023-03-01T00:54:24;4.30;53.90
38480;DHT22;62333;51.980;5.934;2023-03-01T00:56:50;4.30;54.00
38480;DHT22;62333;51.980;5.934;2023-03-01T00:59:16;4.30;54.10
38480;DHT22;62333;51.980;5.934;2023-03-01T01:01:41;4.20;54.60
38480;DHT22;62333;51.980;5.934;2023-03-01T01:04:11;4.20;54.10
38480;DHT22;62333;51.980;5.934;2023-03-01T01:06:42;4.20;54.20
38480;DHT22;62333;51.980;5.934;2023-03-01T01:09:11;4.20;54.30
38480;DHT22;62333;51.980;5.934;2023-03-01T01:11:44;4.10;54.30
38480;DHT22;62333;51.980;5.934;2023-03-01T01:14:10;4.10;54.40
38480;DHT22;62333;51.980;5.934;2023-03-01T01:16:36;4.10;54.60
38480;DHT22;62333;51.980;5.934;2023-03-01T01:19:02;4.00;54.70
38480;DHT22;62333;51.980;5.934;2023-03-01T01:21:28;4.00;54.70
38480;DHT22;62333;51.980;5.934;2023-03-01T01:23:54;4.00;54.80
38480;DHT22;62333;51.980;5.934;2023-03-01T01:26:25;4.00;54.80
38480;DHT22;62333;51.980;5.934;2023-03-01T01:28:51;4.00;54.80
38480;DHT22;62333;51.980;5.934;2023-03-01T01:31:18;3.90;54.80
38480;DHT22;62333;51.980;5.934;2023-03-01T01:33:44;3.90;54.80
38480;DHT22;62333;51.980;5.934;2023-03-01T01:36:10;3.90;54.90
38480;DHT22;62333;51.980;5.934;2023-03-01T01:38:37;3.90;54.90
38480;DHT22;62333;51.980;5.934;2023-03-01T01:41:03;3.80;54.90
38480;DHT22;62333;51.980;5.934;2023-03-01T01:43:33;3.80;55.00
38480;DHT22;62333;51.980;5.934;2023-03-01T01:46:02;3.80;55.10
38480;DHT22;62333;51.980;5.934;2023-03-01T01:48:43;3.80;55.10
38480;DHT22;62333;51.980;5.934;2023-03-01T01:51:13;3.80;55.10
38480;DHT22;62333;51.980;5.934;2023-03-01T01:53:43;3.80;55.20
38480;DHT22;62333;51.980;5.934;2023-03-01T01:56:11;3.70;55.10
38480;DHT22;62333;51.980;5.934;2023-03-01T01:58:40;3.70;55.20
38480;DHT22;62333;51.980;5.934;2023-03-01T02:01:07;3.70;55.20
38480;DHT22;62333;51.980;5.934;2023-03-01T02:03:34;3.60;55.20
38480;DHT22;62333;51.980;5.934;2023-03-01T02:06:36;3.60;55.30
38480;DHT22;62333;51.980;5.934;2023-03-01T02:09:07;3.60;55.40
38480;DHT22;62333;51.980;5.934;2023-03-01T02:11:34;3.60;55.50
38480;DHT22;62333;51.980;5.934;2023-03-01T02:14:03;3.60;55.50
38480;DHT22;62333;51.980;5.934;2023-03-01T02:16:30;3.50;55.50
38480;DHT22;62333;51.980;5.934;2023-03-01T02:18:56;3.50;55.50
38480;DHT22;62333;51.980;5.934;2023-03-01T02:24:01;3.50;55.60
38480;DHT22;62333;51.980;5.934;2023-03-01T02:26:45;3.40;55.70
38480;DHT22;62333;51.980;5.934;2023-03-01T02:29:12;3.40;55.70
38480;DHT22;62333;51.980;5.934;2023-03-01T02:31:37;3.40;55.70
38480;DHT22;62333;51.980;5.934;2023-03-01T02:34:20;3.40;55.70
38480;DHT22;62333;51.980;5.934;2023-03-01T02:36:55;3.40;55.80
38480;DHT22;62333;51.980;5.934;2023-03-01T02:39:32;3.40;55.80
38480;DHT22;62333;51.980;5.934;2023-03-01T02:41:59;3.40;56.00
38480;DHT22;62333;51.980;5.934;2023-03-01T02:44:25;3.40;56.00
38480;DHT22;62333;51.980;5.934;2023-03-01T02:46:53;3.30;56.00
38480;DHT22;62333;51.980;5.934;2023-03-01T02:49:25;3.30;56.10
38480;DHT22;62333;51.980;5.934;2023-03-01T02:52:01;3.30;56.10
38480;DHT22;62333;51.980;5.934;2023-03-01T02:55:14;3.30;56.00
38480;DHT22;62333;51.980;5.934;2023-03-01T02:57:44;3.30;56.10
38480;DHT22;62333;51.980;5.934;2023-03-01T03:00:17;3.30;56.30
38480;DHT22;62333;51.980;5.934;2023-03-01T03:02:48;3.30;56.30
38480;DHT22;62333;51.980;5.934;2023-03-01T03:05:29;3.20;56.30
38480;DHT22;62333;51.980;5.934;2023-03-01T03:07:55;3.20;56.30
38480;DHT22;62333;51.980;5.934;2023-03-01T03:10:32;3.20;56.30
38480;DHT22;62333;51.980;5.934;2023-03-01T03:13:06;3.20;56.50
38480;DHT22;62333;51.980;5.934;2023-03-01T03:15:33;3.20;56.50
38480;DHT22;62333;51.980;5.934;2023-03-01T03:18:03;3.20;56.60
38480;DHT22;62333;51.980;5.934;2023-03-01T03:20:29;3.20;56.60
38480;DHT22;62333;51.980;5.934;2023-03-01T03:22:57;3.20;56.60
38480;DHT22;62333;51.980;5.934;2023-03-01T03:25:28;3.20;56.60
38480;DHT22;62333;51.980;5.934;2023-03-01T03:27:54;3.20;56.70
38480;DHT22;62333;51.980;5.934;2023-03-01T03:30:31;3.20;56.70
38480;DHT22;62333;51.980;5.934;2023-03-01T03:32:57;3.10;56.70
38480;DHT22;62333;51.980;5.934;2023-03-01T03:35:32;3.10;56.70
38480;DHT22;62333;51.980;5.934;2023-03-01T03:38:01;3.10;56.80
38480;DHT22;62333;51.980;5.934;2023-03-01T03:40:46;3.00;56.90
38480;DHT22;62333;51.980;5.934;2023-03-01T03:43:18;3.10;57.00
38480;DHT22;62333;51.980;5.934;2023-03-01T03:45:45;3.00;57.00
38480;DHT22;62333;51.980;5.934;2023-03-01T03:48:11;3.00;57.00
38480;DHT22;62333;51.980;5.934;2023-03-01T03:50:38;3.00;57.10
38480;DHT22;62333;51.980;5.934;2023-03-01T03:53:07;3.00;57.20
38480;DHT22;62333;51.980;5.934;2023-03-01T03:55:33;3.00;57.20
38480;DHT22;62333;51.980;5.934;2023-03-01T03:58:01;3.00;57.90
38480;DHT22;62333;51.980;5.934;2023-03-01T04:00:33;3.00;57.40
38480;DHT22;62333;51.980;5.934;2023-03-01T04:02:59;3.00;57.40
38480;DHT22;62333;51.980;5.934;2023-03-01T04:05:25;3.00;57.50
38480;DHT22;62333;51.980;5.934;2023-03-01T04:07:50;2.90;57.50
38480;DHT22;62333;51.980;5.934;2023-03-01T04:10:32;2.90;57.60
38480;DHT22;62333;51.980;5.934;2023-03-01T04:12:58;2.90;57.70
38480;DHT22;62333;51.980;5.934;2023-03-01T04:15:25;2.90;57.70
38480;DHT22;62333;51.980;5.934;2023-03-01T04:17:52;2.90;57.80
38480;DHT22;62333;51.980;5.934;2023-03-01T04:20:24;2.80;57.90
38480;DHT22;62333;51.980;5.934;2023-03-01T04:23:06;2.80;58.00
38480;DHT22;62333;51.980;5.934;2023-03-01T04:25:49;2.80;58.10
38480;DHT22;62333;51.980;5.934;2023-03-01T04:28:22;2.80;58.10
38480;DHT22;62333;51.980;5.934;2023-03-01T04:30:50;2.80;58.10
38480;DHT22;62333;51.980;5.934;2023-03-01T04:33:16;2.70;58.10
38480;DHT22;62333;51.980;5.934;2023-03-01T04:35:42;2.70;58.20
38480;DHT22;62333;51.980;5.934;2023-03-01T04:38:08;2.70;58.20
38480;DHT22;62333;51.980;5.934;2023-03-01T04:40:34;2.70;58.30
38480;DHT22;62333;51.980;5.934;2023-03-01T04:43:01;2.60;58.40
38480;DHT22;62333;51.980;5.934;2023-03-01T04:45:27;2.60;58.50
38480;DHT22;62333;51.980;5.934;2023-03-01T04:47:53;2.60;58.60
38480;DHT22;62333;51.980;5.934;2023-03-01T04:50:20;2.60;58.60
38480;DHT22;62333;51.980;5.934;2023-03-01T04:52:46;2.60;58.80
38480;DHT22;62333;51.980;5.934;2023-03-01T04:55:13;2.60;58.80
38480;DHT22;62333;51.980;5.934;2023-03-01T04:57:39;2.60;58.80
38480;DHT22;62333;51.980;5.934;2023-03-01T05:00:07;2.60;58.80
38480;DHT22;62333;51.980;5.934;2023-03-01T05:03:00;2.60;58.80
38480;DHT22;62333;51.980;5.934;2023-03-01T05:05:35;2.50;58.80
38480;DHT22;62333;51.980;5.934;2023-03-01T05:08:04;2.50;58.90
38480;DHT22;62333;51.980;5.934;2023-03-01T05:10:31;2.50;58.90
38480;DHT22;62333;51.980;5.934;2023-03-01T05:12:58;2.50;58.80
38480;DHT22;62333;51.980;5.934;2023-03-01T05:15:29;2.50;58.80
38480;DHT22;62333;51.980;5.934;2023-03-01T05:17:56;2.50;58.80
38480;DHT22;62333;51.980;5.934;2023-03-01T05:20:24;2.50;58.80
38480;DHT22;62333;51.980;5.934;2023-03-01T05:22:52;2.50;59.40
38480;DHT22;62333;51.980;5.934;2023-03-01T05:25:17;2.50;58.90
38480;DHT22;62333;51.980;5.934;2023-03-01T05:27:43;2.50;59.00
38480;DHT22;62333;51.980;5.934;2023-03-01T05:30:11;2.50;59.10
38480;DHT22;62333;51.980;5.934;2023-03-01T05:32:48;2.50;59.10
38480;DHT22;62333;51.980;5.934;2023-03-01T05:35:15;2.40;59.20
38480;DHT22;62333;51.980;5.934;2023-03-01T05:37:46;2.40;59.20
38480;DHT22;62333;51.980;5.934;2023-03-01T05:40:15;2.40;59.40
38480;DHT22;62333;51.980;5.934;2023-03-01T05:42:49;2.40;59.40
38480;DHT22;62333;51.980;5.934;2023-03-01T05:45:16;2.40;59.50
38480;DHT22;62333;51.980;5.934;2023-03-01T05:47:45;2.40;59.60
38480;DHT22;62333;51.980;5.934;2023-03-01T05:50:15;2.40;59.60
38480;DHT22;62333;51.980;5.934;2023-03-01T05:52:46;2.40;59.60
38480;DHT22;62333;51.980;5.934;2023-03-01T05:55:12;2.40;59.70
38480;DHT22;62333;51.980;5.934;2023-03-01T05:57:37;2.30;59.60
38480;DHT22;62333;51.980;5.934;2023-03-01T06:00:03;2.30;59.70
38480;DHT22;62333;51.980;5.934;2023-03-01T06:02:29;2.30;59.80
38480;DHT22;62333;51.980;5.934;2023-03-01T06:04:55;2.30;59.80
38480;DHT22;62333;51.980;5.934;2023-03-01T06:07:21;2.30;59.80
38480;DHT22;62333;51.980;5.934;2023-03-01T06:09:46;2.30;59.80
38480;DHT22;62333;51.980;5.934;2023-03-01T06:12:12;2.30;59.90
38480;DHT22;62333;51.980;5.934;2023-03-01T06:14:37;2.30;60.00
38480;DHT22;62333;51.980;5.934;2023-03-01T06:17:03;2.30;60.10
38480;DHT22;62333;51.980;5.934;2023-03-01T06:19:29;2.30;60.10
38480;DHT22;62333;51.980;5.934;2023-03-01T06:21:54;2.30;60.10
38480;DHT22;62333;51.980;5.934;2023-03-01T06:24:20;2.30;60.20
38480;DHT22;62333;51.980;5.934;2023-03-01T06:26:46;2.30;60.30
38480;DHT22;62333;51.980;5.934;2023-03-01T06:29:11;2.20;60.20
38480;DHT22;62333;51.980;5.934;2023-03-01T06:31:37;2.20;60.30
38480;DHT22;62333;51.980;5.934;2023-03-01T06:34:03;2.30;60.40
38480;DHT22;62333;51.980;5.934;2023-03-01T06:36:28;2.20;60.50
38480;DHT22;62333;51.980;5.934;2023-03-01T06:38:54;2.30;60.60
38480;DHT22;62333;51.980;5.934;2023-03-01T06:41:19;2.20;60.80
38480;DHT22;62333;51.980;5.934;2023-03-01T06:43:45;2.30;61.00
38480;DHT22;62333;51.980;5.934;2023-03-01T06:46:11;2.20;61.00
38480;DHT22;62333;51.980;5.934;2023-03-01T06:48:36;2.30;61.70
38480;DHT22;62333;51.980;5.934;2023-03-01T06:51:03;2.30;61.20
38480;DHT22;62333;51.980;5.934;2023-03-01T06:53:29;2.30;61.20
38480;DHT22;62333;51.980;5.934;2023-03-01T06:55:56;2.30;61.30
38480;DHT22;62333;51.980;5.934;2023-03-01T06:58:22;2.40;61.50
38480;DHT22;62333;51.980;5.934;2023-03-01T07:00:48;2.50;61.60
38480;DHT22;62333;51.980;5.934;2023-03-01T07:03:14;2.60;61.70
38480;DHT22;62333;51.980;5.934;2023-03-01T07:05:39;2.70;61.80
38480;DHT22;62333;51.980;5.934;2023-03-01T07:08:05;2.80;61.80
38480;DHT22;62333;51.980;5.934;2023-03-01T07:10:31;3.00;61.80
38480;DHT22;62333;51.980;5.934;2023-03-01T07:12:58;3.10;61.70
38480;DHT22;62333;51.980;5.934;2023-03-01T07:15:24;3.30;61.80
38480;DHT22;62333;51.980;5.934;2023-03-01T07:17:50;3.40;62.30
38480;DHT22;62333;51.980;5.934;2023-03-01T07:20:20;3.60;61.60
38480;DHT22;62333;51.980;5.934;2023-03-01T07:22:50;3.80;61.50
38480;DHT22;62333;51.980;5.934;2023-03-01T07:25:15;3.90;61.40
38480;DHT22;62333;51.980;5.934;2023-03-01T07:27:41;4.10;61.30
38480;DHT22;62333;51.980;5.934;2023-03-01T07:30:07;4.30;61.20
38480;DHT22;62333;51.980;5.934;2023-03-01T07:32:33;4.40;61.00
38480;DHT22;62333;51.980;5.934;2023-03-01T07:34:59;4.60;60.90
38480;DHT22;62333;51.980;5.934;2023-03-01T07:37:25;4.80;60.70
38480;DHT22;62333;51.980;5.934;2023-03-01T07:39:50;5.00;60.60
38480;DHT22;62333;51.980;5.934;2023-03-01T07:42:16;5.20;60.30
38480;DHT22;62333;51.980;5.934;2023-03-01T07:44:41;5.40;60.20
38480;DHT22;62333;51.980;5.934;2023-03-01T07:47:07;5.60;59.90
38480;DHT22;62333;51.980;5.934;2023-03-01T07:49:33;5.80;59.70
38480;DHT22;62333;51.980;5.934;2023-03-01T07:51:58;6.00;59.40
38480;DHT22;62333;51.980;5.934;2023-03-01T07:54:24;6.20;59.20
38480;DHT22;62333;51.980;5.934;2023-03-01T07:56:51;6.40;58.90
38480;DHT22;62333;51.980;5.934;2023-03-01T07:59:17;6.60;58.60
38480;DHT22;62333;51.980;5.934;2023-03-01T08:01:43;6.70;58.30
38480;DHT22;62333;51.980;5.934;2023-03-01T08:04:08;6.90;58.10
38480;DHT22;62333;51.980;5.934;2023-03-01T08:06:35;7.00;57.90
38480;DHT22;62333;51.980;5.934;2023-03-01T08:09:01;7.20;57.10
38480;DHT22;62333;51.980;5.934;2023-03-01T08:11:27;7.30;56.80
38480;DHT22;62333;51.980;5.934;2023-03-01T08:13:54;7.50;56.80
38480;DHT22;62333;51.980;5.934;2023-03-01T08:16:20;7.70;56.20
38480;DHT22;62333;51.980;5.934;2023-03-01T08:18:46;7.80;55.30
38480;DHT22;62333;51.980;5.934;2023-03-01T08:21:16;7.90;54.90
38480;DHT22;62333;51.980;5.934;2023-03-01T08:23:43;7.90;54.50
38480;DHT22;62333;51.980;5.934;2023-03-01T08:26:20;8.00;54.50
38480;DHT22;62333;51.980;5.934;2023-03-01T08:28:47;8.10;54.30
38480;DHT22;62333;51.980;5.934;2023-03-01T08:33:43;8.40;54.10
38480;DHT22;62333;51.980;5.934;2023-03-01T08:36:09;8.50;53.50
38480;DHT22;62333;51.980;5.934;2023-03-01T08:38:35;8.60;52.60
38480;DHT22;62333;51.980;5.934;2023-03-01T08:41:02;8.70;52.50
38480;DHT22;62333;51.980;5.934;2023-03-01T08:43:29;8.80;52.50
38480;DHT22;62333;51.980;5.934;2023-03-01T08:45:54;8.90;52.30
38480;DHT22;62333;51.980;5.934;2023-03-01T08:48:20;9.10;52.30
38480;DHT22;62333;51.980;5.934;2023-03-01T08:50:46;9.20;51.70
38480;DHT22;62333;51.980;5.934;2023-03-01T08:53:11;9.30;51.40
38480;DHT22;62333;51.980;5.934;2023-03-01T08:55:37;9.40;51.10
38480;DHT22;62333;51.980;5.934;2023-03-01T08:58:03;9.40;50.70
38480;DHT22;62333;51.980;5.934;2023-03-01T09:00:28;9.50;50.60
38480;DHT22;62333;51.980;5.934;2023-03-01T09:02:54;9.60;50.10
38480;DHT22;62333;51.980;5.934;2023-03-01T09:05:19;9.50;49.30
38480;DHT22;62333;51.980;5.934;2023-03-01T09:07:45;9.60;49.20
38480;DHT22;62333;51.980;5.934;2023-03-01T09:10:11;9.60;48.80
38480;DHT22;62333;51.980;5.934;2023-03-01T09:12:37;9.60;48.70
38480;DHT22;62333;51.980;5.934;2023-03-01T09:15:02;9.60;48.60
38480;DHT22;62333;51.980;5.934;2023-03-01T09:17:28;9.60;48.50
38480;DHT22;62333;51.980;5.934;2023-03-01T09:19:54;9.70;48.60
38480;DHT22;62333;51.980;5.934;2023-03-01T09:22:20;9.70;48.50
38480;DHT22;62333;51.980;5.934;2023-03-01T09:24:46;9.90;48.10
38480;DHT22;62333;51.980;5.934;2023-03-01T09:27:11;9.90;48.00
38480;DHT22;62333;51.980;5.934;2023-03-01T09:29:38;10.00;47.80
38480;DHT22;62333;51.980;5.934;2023-03-01T09:32:05;10.00;47.70
38480;DHT22;62333;51.980;5.934;2023-03-01T09:34:31;10.10;47.60
38480;DHT22;62333;51.980;5.934;2023-03-01T09:36:57;10.10;47.00
38480;DHT22;62333;51.980;5.934;2023-03-01T09:39:23;10.10;47.20
38480;DHT22;62333;51.980;5.934;2023-03-01T09:42:03;10.30;46.70
38480;DHT22;62333;51.980;5.934;2023-03-01T09:44:35;10.30;46.60
38480;DHT22;62333;51.980;5.934;2023-03-01T09:47:03;10.40;46.30
38480;DHT22;62333;51.980;5.934;2023-03-01T09:49:34;10.50;46.40
38480;DHT22;62333;51.980;5.934;2023-03-01T09:52:21;10.60;46.20
38480;DHT22;62333;51.980;5.934;2023-03-01T09:54:51;10.60;45.80
38480;DHT22;62333;51.980;5.934;2023-03-01T10:08:43;11.10;45.30
38480;DHT22;62333;51.980;5.934;2023-03-01T10:11:27;11.30;45.10
38480;DHT22;62333;51.980;5.934;2023-03-01T10:19:46;11.70;43.90
38480;DHT22;62333;51.980;5.934;2023-03-01T10:22:21;11.80;43.50
38480;DHT22;62333;51.980;5.934;2023-03-01T10:24:49;11.90;43.20
38480;DHT22;62333;51.980;5.934;2023-03-01T10:32:32;12.30;46.10
38480;DHT22;62333;51.980;5.934;2023-03-01T10:34:58;12.40;46.50
38480;DHT22;62333;51.980;5.934;2023-03-01T10:37:24;12.50;45.60
38480;DHT22;62333;51.980;5.934;2023-03-01T10:40:05;12.70;44.00
38480;DHT22;62333;51.980;5.934;2023-03-01T10:42:54;12.60;44.00
38480;DHT22;62333;51.980;5.934;2023-03-01T10:48:13;12.70;44.50
38480;DHT22;62333;51.980;5.934;2023-03-01T10:50:41;12.80;44.60
38480;DHT22;62333;51.980;5.934;2023-03-01T10:56:07;13.00;44.90
38480;DHT22;62333;51.980;5.934;2023-03-01T10:58:35;13.00;44.80
38480;DHT22;62333;51.980;5.934;2023-03-01T11:01:05;13.10;44.50
38480;DHT22;62333;51.980;5.934;2023-03-01T11:03:37;13.10;44.60
38480;DHT22;62333;51.980;5.934;2023-03-01T11:06:21;13.20;44.60
38480;DHT22;62333;51.980;5.934;2023-03-01T11:08:50;13.30;44.70
38480;DHT22;62333;51.980;5.934;2023-03-01T11:11:34;13.30;44.70
38480;DHT22;62333;51.980;5.934;2023-03-01T11:14:16;13.30;44.80
38480;DHT22;62333;51.980;5.934;2023-03-01T11:16:44;13.50;45.60
38480;DHT22;62333;51.980;5.934;2023-03-01T11:24:34;13.80;39.10
38480;DHT22;62333;51.980;5.934;2023-03-01T11:27:04;13.80;39.10
38480;DHT22;62333;51.980;5.934;2023-03-01T11:29:42;13.90;38.90
38480;DHT22;62333;51.980;5.934;2023-03-01T11:32:11;14.00;38.80
38480;DHT22;62333;51.980;5.934;2023-03-01T11:34:40;14.10;38.70
38480;DHT22;62333;51.980;5.934;2023-03-01T11:45:23;14.20;37.50
38480;DHT22;62333;51.980;5.934;2023-03-01T11:50:44;14.50;37.30
38480;DHT22;62333;51.980;5.934;2023-03-01T11:53:47;14.70;37.90
38480;DHT22;62333;51.980;5.934;2023-03-01T12:07:30;15.10;35.90
38480;DHT22;62333;51.980;5.934;2023-03-01T12:10:17;15.20;36.00
38480;DHT22;62333;51.980;5.934;2023-03-01T12:34:33;14.30;35.90
38480;DHT22;62333;51.980;5.934;2023-03-01T12:37:29;14.20;36.00
38480;DHT22;62333;51.980;5.934;2023-03-01T12:51:10;13.50;36.80
38480;DHT22;62333;51.980;5.934;2023-03-01T12:53:44;13.50;36.90
38480;DHT22;62333;51.980;5.934;2023-03-01T12:56:13;13.60;36.80
38480;DHT22;62333;51.980;5.934;2023-03-01T12:59:04;13.70;36.70
38480;DHT22;62333;51.980;5.934;2023-03-01T13:01:54;13.80;36.30
38480;DHT22;62333;51.980;5.934;2023-03-01T13:04:45;13.90;36.40
38480;DHT22;62333;51.980;5.934;2023-03-01T13:17:59;13.40;35.90
38480;DHT22;62333;51.980;5.934;2023-03-01T13:20:46;13.40;36.00
38480;DHT22;62333;51.980;5.934;2023-03-01T13:34:00;13.20;36.90
38480;DHT22;62333;51.980;5.934;2023-03-01T13:38:57;13.30;36.90
38480;DHT22;62333;51.980;5.934;2023-03-01T13:54:59;13.60;36.20
38480;DHT22;62333;51.980;5.934;2023-03-01T13:57:38;13.70;36.00
38480;DHT22;62333;51.980;5.934;2023-03-01T14:03:20;13.70;35.80
38480;DHT22;62333;51.980;5.934;2023-03-01T14:06:05;13.80;35.90
38480;DHT22;62333;51.980;5.934;2023-03-01T14:08:33;13.80;35.90
38480;DHT22;62333;51.980;5.934;2023-03-01T14:19:25;13.70;35.90
38480;DHT22;62333;51.980;5.934;2023-03-01T14:22:12;13.60;36.00
38480;DHT22;62333;51.980;5.934;2023-03-01T14:24:48;13.60;36.30
38480;DHT22;62333;51.980;5.934;2023-03-01T14:27:15;13.60;36.40
38480;DHT22;62333;51.980;5.934;2023-03-01T14:29:41;13.50;36.60
38480;DHT22;62333;51.980;5.934;2023-03-01T14:34:44;13.50;36.30
38480;DHT22;62333;51.980;5.934;2023-03-01T14:39:43;13.40;36.20
38480;DHT22;62333;51.980;5.934;2023-03-01T14:42:09;13.30;36.40
38480;DHT22;62333;51.980;5.934;2023-03-01T14:44:35;13.20;37.00
38480;DHT22;62333;51.980;5.934;2023-03-01T14:47:03;13.20;36.30
38480;DHT22;62333;51.980;5.934;2023-03-01T14:49:30;13.00;36.10
38480;DHT22;62333;51.980;5.934;2023-03-01T14:52:07;13.00;36.40
38480;DHT22;62333;51.980;5.934;2023-03-01T14:54:46;12.90;36.40
38480;DHT22;62333;51.980;5.934;2023-03-01T14:57:30;12.80;36.40
38480;DHT22;62333;51.980;5.934;2023-03-01T15:00:01;12.60;36.30
38480;DHT22;62333;51.980;5.934;2023-03-01T15:02:31;12.50;36.10
38480;DHT22;62333;51.980;5.934;2023-03-01T15:05:04;12.40;36.10
38480;DHT22;62333;51.980;5.934;2023-03-01T15:07:35;12.20;36.20
38480;DHT22;62333;51.980;5.934;2023-03-01T15:10:03;12.10;36.30
38480;DHT22;62333;51.980;5.934;2023-03-01T15:12:38;12.00;36.30
38480;DHT22;62333;51.980;5.934;2023-03-01T15:15:22;11.90;36.50
38480;DHT22;62333;51.980;5.934;2023-03-01T15:17:53;11.80;36.70
38480;DHT22;62333;51.980;5.934;2023-03-01T15:20:25;11.70;37.40
38480;DHT22;62333;51.980;5.934;2023-03-01T15:22:53;11.60;36.90
38480;DHT22;62333;51.980;5.934;2023-03-01T15:25:26;11.50;37.10
38480;DHT22;62333;51.980;5.934;2023-03-01T15:27:53;11.40;37.30
38480;DHT22;62333;51.980;5.934;2023-03-01T15:30:32;11.30;37.50
38480;DHT22;62333;51.980;5.934;2023-03-01T15:35:56;11.20;37.90
38480;DHT22;62333;51.980;5.934;2023-03-01T15:38:53;11.10;38.20
38480;DHT22;62333;51.980;5.934;2023-03-01T15:41:27;11.00;38.50
38480;DHT22;62333;51.980;5.934;2023-03-01T15:43:57;11.00;38.80
38480;DHT22;62333;51.980;5.934;2023-03-01T15:46:30;10.90;39.00
38480;DHT22;62333;51.980;5.934;2023-03-01T15:48:59;10.80;39.10
38480;DHT22;62333;51.980;5.934;2023-03-01T15:51:36;10.80;39.20
38480;DHT22;62333;51.980;5.934;2023-03-01T15:54:18;10.80;39.30
38480;DHT22;62333;51.980;5.934;2023-03-01T15:56:44;10.70;39.50
38480;DHT22;62333;51.980;5.934;2023-03-01T15:59:11;10.70;39.60
38480;DHT22;62333;51.980;5.934;2023-03-01T16:01:38;10.60;39.70
38480;DHT22;62333;51.980;5.934;2023-03-01T16:04:04;10.70;40.00
38480;DHT22;62333;51.980;5.934;2023-03-01T16:06:30;10.60;40.00
38480;DHT22;62333;51.980;5.934;2023-03-01T16:08:55;10.70;40.10
38480;DHT22;62333;51.980;5.934;2023-03-01T16:11:21;10.60;40.10
38480;DHT22;62333;51.980;5.934;2023-03-01T16:13:47;10.60;40.10
38480;DHT22;62333;51.980;5.934;2023-03-01T16:16:14;10.60;39.90
38480;DHT22;62333;51.980;5.934;2023-03-01T16:18:50;10.60;39.90
38480;DHT22;62333;51.980;5.934;2023-03-01T16:21:20;10.50;39.90
38480;DHT22;62333;51.980;5.934;2023-03-01T16:23:46;10.60;40.10
38480;DHT22;62333;51.980;5.934;2023-03-01T16:26:12;10.50;40.00
38480;DHT22;62333;51.980;5.934;2023-03-01T16:28:42;10.50;40.10
38480;DHT22;62333;51.980;5.934;2023-03-01T16:31:08;10.40;40.00
38480;DHT22;62333;51.980;5.934;2023-03-01T16:33:34;10.40;40.10
38480;DHT22;62333;51.980;5.934;2023-03-01T16:36:06;10.30;40.10
38480;DHT22;62333;51.980;5.934;2023-03-01T16:38:31;10.30;40.00
38480;DHT22;62333;51.980;5.934;2023-03-01T16:40:57;10.20;40.10
38480;DHT22;62333;51.980;5.934;2023-03-01T16:43:23;10.30;40.30
38480;DHT22;62333;51.980;5.934;2023-03-01T16:45:49;10.20;40.30
38480;DHT22;62333;51.980;5.934;2023-03-01T16:48:15;10.20;40.40
38480;DHT22;62333;51.980;5.934;2023-03-01T16:50:41;10.20;40.50
38480;DHT22;62333;51.980;5.934;2023-03-01T16:53:06;10.10;40.50
38480;DHT22;62333;51.980;5.934;2023-03-01T16:55:32;10.10;40.60
38480;DHT22;62333;51.980;5.934;2023-03-01T16:57:58;10.10;40.70
38480;DHT22;62333;51.980;5.934;2023-03-01T17:00:24;10.00;40.80
38480;DHT22;62333;51.980;5.934;2023-03-01T17:02:50;10.00;41.50
38480;DHT22;62333;51.980;5.934;2023-03-01T17:05:17;10.10;41.10
38480;DHT22;62333;51.980;5.934;2023-03-01T17:07:42;10.00;41.20
38480;DHT22;62333;51.980;5.934;2023-03-01T17:10:09;10.00;41.40
38480;DHT22;62333;51.980;5.934;2023-03-01T17:12:36;10.00;41.40
38480;DHT22;62333;51.980;5.934;2023-03-01T17:15:03;9.90;41.60
38480;DHT22;62333;51.980;5.934;2023-03-01T17:17:29;9.90;41.80
38480;DHT22;62333;51.980;5.934;2023-03-01T17:19:55;9.90;41.80
38480;DHT22;62333;51.980;5.934;2023-03-01T17:22:21;9.90;42.00
38480;DHT22;62333;51.980;5.934;2023-03-01T17:24:47;9.90;42.10
38480;DHT22;62333;51.980;5.934;2023-03-01T17:27:13;9.80;42.20
38480;DHT22;62333;51.980;5.934;2023-03-01T17:29:40;9.80;42.50
38480;DHT22;62333;51.980;5.934;2023-03-01T17:32:07;9.80;42.60
38480;DHT22;62333;51.980;5.934;2023-03-01T17:34:33;9.80;42.70
38480;DHT22;62333;51.980;5.934;2023-03-01T17:36:59;9.80;42.80
38480;DHT22;62333;51.980;5.934;2023-03-01T17:39:25;9.70;42.90
38480;DHT22;62333;51.980;5.934;2023-03-01T17:41:56;9.70;43.10
38480;DHT22;62333;51.980;5.934;2023-03-01T17:44:23;9.70;43.40
38480;DHT22;62333;51.980;5.934;2023-03-01T17:46:48;9.60;43.50
38480;DHT22;62333;51.980;5.934;2023-03-01T17:49:14;9.70;43.80
38480;DHT22;62333;51.980;5.934;2023-03-01T17:51:41;9.60;44.10
38480;DHT22;62333;51.980;5.934;2023-03-01T17:54:07;9.60;44.50
38480;DHT22;62333;51.980;5.934;2023-03-01T17:56:32;9.60;44.80
38480;DHT22;62333;51.980;5.934;2023-03-01T17:58:58;9.60;45.20
38480;DHT22;62333;51.980;5.934;2023-03-01T18:01:24;9.50;45.40
38480;DHT22;62333;51.980;5.934;2023-03-01T18:03:51;9.50;45.60
38480;DHT22;62333;51.980;5.934;2023-03-01T18:06:25;9.50;46.20
38480;DHT22;62333;51.980;5.934;2023-03-01T18:08:52;9.50;46.70
38480;DHT22;62333;51.980;5.934;2023-03-01T18:11:22;9.50;47.00
38480;DHT22;62333;51.980;5.934;2023-03-01T18:13:48;9.40;47.50
38480;DHT22;62333;51.980;5.934;2023-03-01T18:16:16;9.40;47.90
38480;DHT22;62333;51.980;5.934;2023-03-01T18:18:42;9.40;50.30
38480;DHT22;62333;51.980;5.934;2023-03-01T18:21:10;9.30;53.10
38480;DHT22;62333;51.980;5.934;2023-03-01T18:23:35;9.30;51.60